Home > Products > Valid Products > MTR

000
SAUS46 KSGX 072153
MTRCZZ
METAR KCZZ 072152Z AUTO 23016KT 31/09 A2991 RMK AO1 SLP096 T03060089





000
SAUS46 KSGX 072053
MTRCZZ
METAR KCZZ 072052Z AUTO 22015KT 29/11 A2992 RMK AO1 SLP103 T02940106
58015





000
SAUS46 KSGX 071953
MTRCZZ
METAR KCZZ 071952Z AUTO 20014KT 29/13 A2994 RMK AO1 SLP109 T02890128





000
SAUS46 KSGX 071853
MTRCZZ
METAR KCZZ 071852Z AUTO 21013KT 27/14 A2996 RMK AO1 SLP116 T02720139





000
SAUS46 KSGX 071852
MTRSAN
METAR KSAN 071851Z 25006KT 10SM OVC018 21/15 A3000 RMK AO2 SLP158
T02060150 $





000
SAUS46 KSGX 071753
MTRCZZ
METAR KCZZ 071752Z AUTO 21011KT 26/14 A2997 RMK AO1 SLP119 T02610139
10261 20106 56009





000
SAUS46 KSGX 071753
MTRCZZ
METAR KCZZ 071752Z AUTO 21011KT 26/14 A2997 RMK AO1 SLP119 T02610139
10261 20106 56009





000
SAUS46 KSGX 071653
MTRCZZ
METAR KCZZ 071652Z AUTO 22009KT 24/14 A2998 RMK AO1 SLP123 T02440139





000
SAUS46 KSGX 071653
MTRCZZ
METAR KCZZ 071652Z AUTO 22009KT 24/14 A2998 RMK AO1 SLP123 T02440139





000
SAUS46 KSGX 071554
MTRCZZ
METAR KCZZ 071552Z AUTO 22004KT 22/14 A2999 RMK AO1 SLP128 T02170144





000
SAUS46 KSGX 071454
MTRCZZ
METAR KCZZ 071452Z AUTO 00000KT 17/14 A3000 RMK AO1 SLP133 T01720139
53007





000
SAUS46 KSGX 071454
MTRCZZ
METAR KCZZ 071452Z AUTO 00000KT 17/14 A3000 RMK AO1 SLP133 T01720139
53007





000
SAUS46 KSGX 071354
MTRCZZ
METAR KCZZ 071352Z AUTO 00000KT 14/12 A3000 RMK AO1 SLP130 T01390122





000
SAUS46 KSGX 071354
MTRCZZ
METAR KCZZ 071352Z AUTO 00000KT 14/12 A3000 RMK AO1 SLP130 T01390122





000
SAUS46 KSGX 071253
MTRCZZ
METAR KCZZ 071252Z AUTO 00000KT 12/11 A2998 RMK AO1 SLP126 T01170106





000
SAUS46 KSGX 071253
MTRCZZ
METAR KCZZ 071252Z AUTO 00000KT 12/11 A2998 RMK AO1 SLP126 T01170106





000
SAUS46 KSGX 071153
MTRCZZ
METAR KCZZ 071152Z AUTO 04003KT 12/11 A2998 RMK AO1 SLP123 T01170106
10150 20111 55004





000
SAUS46 KSGX 071053
MTRCZZ
METAR KCZZ 071052Z AUTO 00000KT 12/11 A2998 RMK AO1 SLP122 T01220111





000
SAUS46 KSGX 070953
MTRCZZ
METAR KCZZ 070952Z AUTO 00000KT 12/11 A2998 RMK AO1 SLP124 T01220111





000
SAUS46 KSGX 070853
MTRCZZ
METAR KCZZ 070852Z AUTO 00000KT 12/11 A2999 RMK AO1 SLP128 T01170106
56007





000
SAUS46 KSGX 070853
MTRCZZ
METAR KCZZ 070852Z AUTO 00000KT 12/11 A2999 RMK AO1 SLP128 T01170106
56007





000
SAUS46 KSGX 070753
MTRCZZ
METAR KCZZ 070752Z AUTO 05004KT 13/12 A3000 RMK AO1 SLP129 T01280117
402780128





000
SAUS46 KSGX 070653
MTRCZZ
METAR KCZZ 070652Z AUTO 35003KT 14/12 A3001 RMK AO1 SLP134 T01390122





000
SAUS46 KSGX 070553
MTRCZZ
METAR KCZZ 070552Z AUTO 00000KT 15/13 A3002 RMK AO1 SLP136 T01500133
10261 20144 51010





000
SAUS46 KSGX 070553
MTRCZZ
METAR KCZZ 070552Z AUTO 00000KT 15/13 A3002 RMK AO1 SLP136 T01500133
10261 20144 51010





000
SAUS46 KSGX 070453
MTRCZZ
METAR KCZZ 070452Z AUTO 22003KT 16/14 A3002 RMK AO1 SLP136 T01560139





000
SAUS46 KSGX 070353
MTRCZZ
METAR KCZZ 070352Z AUTO 20004KT 17/14 A3000 RMK AO1 SLP132 T01670144





000
SAUS46 KSGX 070353
MTRCZZ
METAR KCZZ 070352Z AUTO 20004KT 17/14 A3000 RMK AO1 SLP132 T01670144





000
SAUS46 KSGX 070253
MTRCZZ
METAR KCZZ 070252Z AUTO 20006KT 19/14 A2998 RMK AO1 SLP128 T01890144
53005





000
SAUS46 KSGX 070153
MTRCZZ
METAR KCZZ 070152Z AUTO 21011KT 23/15 A2997 RMK AO1 SLP122 T02280150





000
SAUS46 KSGX 070153
MTRCZZ
METAR KCZZ 070152Z AUTO 21011KT 23/15 A2997 RMK AO1 SLP122 T02280150





000
SAUS46 KSGX 070053
MTRCZZ
METAR KCZZ 070052Z AUTO 20013KT 24/16 A2997 RMK AO1 SLP118 T02440156





000
SAUS46 KSGX 070053
MTRCZZ
METAR KCZZ 070052Z AUTO 20013KT 24/16 A2997 RMK AO1 SLP118 T02440156





000
SAUS46 KSGX 062353
MTRCZZ
METAR KCZZ 062352Z AUTO 21014KT 27/16 A2997 RMK AO1 SLP119 T02670156
10278 20228 56010





000
SAUS46 KSGX 062253
MTRCZZ
METAR KCZZ 062252Z AUTO 22017KT 27/15 A2998 RMK AO1 SLP121 T02720150





000
SAUS46 KSGX 062253
MTRCZZ
METAR KCZZ 062252Z AUTO 22017KT 27/15 A2998 RMK AO1 SLP121 T02720150





000
SAUS46 KSGX 062153
MTRCZZ
METAR KCZZ 062152Z AUTO 22015KT 27/15 A2999 RMK AO1 SLP124 T02720150





000
SAUS46 KSGX 062053
MTRCZZ
METAR KCZZ 062052Z AUTO 22015KT 27/16 A3000 RMK AO1 SLP128 T02720156
58009





000
SAUS46 KSGX 062053
MTRCZZ
METAR KCZZ 062052Z AUTO 22015KT 27/16 A3000 RMK AO1 SLP128 T02720156
58009





000
SAUS46 KSGX 061953
MTRCZZ
METAR KCZZ 061952Z AUTO 21012KT 26/16 A3002 RMK AO1 SLP135 T02610156





000
SAUS46 KSGX 061953
MTRCZZ
METAR KCZZ 061952Z AUTO 21012KT 26/16 A3002 RMK AO1 SLP135 T02610156





000
SAUS46 KSGX 061853
MTRCZZ
METAR KCZZ 061852Z AUTO 20015KT 24/15 A3003 RMK AO1 SLP140 T02390150





000
SAUS46 KSGX 061853
MTRCZZ
METAR KCZZ 061852Z AUTO 20015KT 24/15 A3003 RMK AO1 SLP140 T02390150





000
SAUS46 KSGX 061753
MTRCZZ
METAR KCZZ 061752Z AUTO 20011KT 24/15 A3003 RMK AO1 SLP140 T02390150
10239 20133 58004





000
SAUS46 KSGX 061653
MTRCZZ
METAR KCZZ 061652Z AUTO 21007KT 22/15 A3004 RMK AO1 SLP143 T02170150





000
SAUS46 KSGX 061553
MTRCZZ
METAR KCZZ 061552Z AUTO 23008KT 19/15 A3004 RMK AO1 SLP145 T01940150





000
SAUS46 KSGX 061453
MTRCZZ
METAR KCZZ 061452Z AUTO 22003KT 15/14 A3004 RMK AO1 SLP148 T01500144
51010





000
SAUS46 KSGX 061353
MTRCZZ
METAR KCZZ 061352Z AUTO 00000KT 14/14 A3004 RMK AO1 SLP146 T01390139
$





000
SAUS46 KSGX 061353
MTRCZZ
METAR KCZZ 061352Z AUTO 00000KT 14/14 A3004 RMK AO1 SLP146 T01390139
$





000
SAUS46 KSGX 061253
MTRCZZ
METAR KCZZ 061252Z AUTO 03003KT 14/13 A3002 RMK AO1 SLP139 T01390133
$





000
SAUS46 KSGX 061253
MTRCZZ
METAR KCZZ 061252Z AUTO 03003KT 14/13 A3002 RMK AO1 SLP139 T01390133
$





000
SAUS46 KSGX 061153
MTRCZZ
METAR KCZZ 061152Z AUTO 00000KT 13/13 A3001 RMK AO1 SLP134 T01330128
10167 20128 53003 $





000
SAUS46 KSGX 061153
MTRCZZ
METAR KCZZ 061152Z AUTO 00000KT 13/13 A3001 RMK AO1 SLP134 T01330128
10167 20128 53003 $





000
SAUS46 KSGX 061053
MTRCZZ
METAR KCZZ 061052Z AUTO 00000KT 13/13 A3000 RMK AO1 SLP131 T01330128
$





000
SAUS46 KSGX 061053
MTRCZZ
METAR KCZZ 061052Z AUTO 00000KT 13/13 A3000 RMK AO1 SLP131 T01330128
$





000
SAUS46 KSGX 060953
MTRCZZ
METAR KCZZ 060952Z AUTO 00000KT 14/12 A3000 RMK AO1 SLP130 T01390122
$





000
SAUS46 KSGX 060853
MTRCZZ
METAR KCZZ 060852Z AUTO 00000KT 14/13 A3000 RMK AO1 SLP129 T01440128
57006





000
SAUS46 KSGX 060754
MTRCZZ
METAR KCZZ 060752Z AUTO 00000KT 16/13 A3001 RMK AO1 SLP132 T01560133
402780122





000
SAUS46 KSGX 060654
MTRCZZ
METAR KCZZ 060652Z AUTO 00000KT 15/13 A3002 RMK AO1 SLP135 T01500133





000
SAUS46 KSGX 060654
MTRCZZ
METAR KCZZ 060652Z AUTO 00000KT 15/13 A3002 RMK AO1 SLP135 T01500133





000
SAUS46 KSGX 060553
MTRCZZ
METAR KCZZ 060552Z AUTO 00000KT 16/14 A3002 RMK AO1 SLP137 T01610139
10250 20156 51016





000
SAUS46 KSGX 060454
MTRCZZ
METAR KCZZ 060452Z AUTO 21003KT 16/14 A3002 RMK AO1 SLP135 T01610144





000
SAUS46 KSGX 060354
MTRCZZ
METAR KCZZ 060352Z AUTO 20007KT 17/14 A3000 RMK AO1 SLP129 T01720144





000
SAUS46 KSGX 060254
MTRCZZ
METAR KCZZ 060252Z AUTO 21010KT 19/14 A2997 RMK AO1 SLP120 T01890144
53006





000
SAUS46 KSGX 060153
MTRCZZ
METAR KCZZ 060152Z AUTO 21011G17KT 22/15 A2996 RMK AO1 SLP117
T02170150





000
SAUS46 KSGX 060153
MTRCZZ
METAR KCZZ 060152Z AUTO 21011G17KT 22/15 A2996 RMK AO1 SLP117
T02170150





000
SAUS46 KSGX 060054
MTRCZZ
METAR KCZZ 060052Z AUTO 21015G21KT 23/15 A2995 RMK AO1 SLP114
T02330150





000
SAUS46 KSGX 052353
MTRCZZ
METAR KCZZ 052352Z AUTO 21014G22KT 26/15 A2995 RMK AO1 SLP113
T02560150 10278 20233 57002





000
SAUS46 KSGX 052353
MTRCZZ
METAR KCZZ 052352Z AUTO 21014G22KT 26/15 A2995 RMK AO1 SLP113
T02560150 10278 20233 57002





000
SAUS46 KSGX 052253
MTRCZZ
METAR KCZZ 052252Z AUTO 22015KT 27/15 A2996 RMK AO1 SLP114 T02670150





000
SAUS46 KSGX 052153
MTRCZZ
METAR KCZZ 052152Z AUTO 22016KT 27/15 A2995 RMK AO1 SLP113 T02670150





000
SAUS46 KSGX 052053
MTRCZZ
METAR KCZZ 052052Z AUTO 22015G20KT 28/16 A2996 RMK AO1 SLP113
T02780156 58006





000
SAUS46 KSGX 052053
MTRCZZ
METAR KCZZ 052052Z AUTO 22015G20KT 28/16 A2996 RMK AO1 SLP113
T02780156 58006





000
SAUS46 KSGX 051953
MTRCZZ
METAR KCZZ 051952Z AUTO 21016KT 26/15 A2997 RMK AO1 SLP120 T02560150





000
SAUS46 KSGX 051853
MTRCZZ
METAR KCZZ 051852Z AUTO 22014KT 24/15 A2998 RMK AO1 SLP124 T02440150





000
SAUS46 KSGX 051753
MTRCZZ
METAR KCZZ 051752Z AUTO 21009KT 24/16 A2998 RMK AO1 SLP122 T02390156
10239 20122 51003





000
SAUS46 KSGX 051653
MTRCZZ
METAR KCZZ 051652Z AUTO 21011KT 22/15 A2998 RMK AO1 SLP122 T02220150





000
SAUS46 KSGX 051653
MTRCZZ
METAR KCZZ 051652Z AUTO 21011KT 22/15 A2998 RMK AO1 SLP122 T02220150





000
SAUS46 KSGX 051553
MTRCZZ
METAR KCZZ 051552Z AUTO 21007KT 22/14 A2997 RMK AO1 SLP121 T02220144





000
SAUS46 KSGX 051453
MTRCZZ
METAR KCZZ 051452Z AUTO 00000KT 19/14 A2997 RMK AO1 SLP118 T01940139
51009





000
SAUS46 KSGX 051353
MTRCZZ
METAR KCZZ 051352Z AUTO 00000KT 16/13 A2996 RMK AO1 SLP117 T01560133





000
SAUS46 KSGX 051353
MTRCZZ
METAR KCZZ 051352Z AUTO 00000KT 16/13 A2996 RMK AO1 SLP117 T01560133





000
SAUS46 KSGX 051253
MTRCZZ
METAR KCZZ 051252Z AUTO 03003KT 13/12 A2995 RMK AO1 SLP112 T01330122





000
SAUS46 KSGX 051153
MTRCZZ
METAR KCZZ 051152Z AUTO 03003KT 13/12 A2994 RMK AO1 SLP107 T01280117
10161 20128 55001





000
SAUS46 KSGX 051053
MTRCZZ
METAR KCZZ 051052Z AUTO 05004KT 14/12 A2993 RMK AO1 SLP102 T01440122





000
SAUS46 KSGX 050953
MTRCZZ
METAR KCZZ 050952Z AUTO 03003KT 14/13 A2994 RMK AO1 SLP104 T01440128





000
SAUS46 KSGX 050853
MTRCZZ
METAR KCZZ 050852Z AUTO 00000KT 15/13 A2994 RMK AO1 SLP106 T01500128
58006





000
SAUS46 KSGX 050853
MTRCZZ
METAR KCZZ 050852Z AUTO 00000KT 15/13 A2994 RMK AO1 SLP106 T01500128
58006





000
SAUS46 KSGX 050753
MTRCZZ
METAR KCZZ 050752Z AUTO 04004KT 14/12 A2995 RMK AO1 SLP110 T01390122
403110128





000
SAUS46 KSGX 050653
MTRCZZ
METAR KCZZ 050652Z AUTO 00000KT 15/13 A2995 RMK AO1 SLP112 T01500128





000
SAUS46 KSGX 050653
MTRCZZ
METAR KCZZ 050652Z AUTO 00000KT 15/13 A2995 RMK AO1 SLP112 T01500128





000
SAUS46 KSGX 050553
MTRCZZ
METAR KCZZ 050552Z AUTO 02005KT 16/13 A2996 RMK AO1 SLP114 T01560133
10294 20156 51016





000
SAUS46 KSGX 050553
MTRCZZ
METAR KCZZ 050552Z AUTO 02005KT 16/13 A2996 RMK AO1 SLP114 T01560133
10294 20156 51016





000
SAUS46 KSGX 050453
MTRCZZ
METAR KCZZ 050452Z AUTO 00000KT 17/14 A2996 RMK AO1 SLP112 T01720139





000
SAUS46 KSGX 050353
MTRCZZ
METAR KCZZ 050352Z AUTO 20007KT 18/14 A2993 RMK AO1 SLP104 T01780139





000
SAUS46 KSGX 050253
MTRCZZ
METAR KCZZ 050252Z AUTO 21013KT 20/14 A2991 RMK AO1 SLP098 T02000144
53010





000
SAUS46 KSGX 050153
MTRCZZ
METAR KCZZ 050152Z AUTO 21011KT 23/14 A2989 RMK AO1 SLP091 T02330144





000
SAUS46 KSGX 050053
MTRCZZ
METAR KCZZ 050052Z AUTO 23014KT 27/15 A2987 RMK AO1 SLP083 T02720150





000
SAUS46 KSGX 042353
MTRCZZ
METAR KCZZ 042352Z AUTO 24010G18KT 29/15 A2988 RMK AO1 SLP085
T02890150 10311 20267 56005





000
SAUS46 KSGX 042353
MTRCZZ
METAR KCZZ 042352Z AUTO 24010G18KT 29/15 A2988 RMK AO1 SLP085
T02890150 10311 20267 56005





000
SAUS46 KSGX 042253
MTRCZZ
METAR KCZZ 042252Z AUTO 22016G23KT 29/15 A2988 RMK AO1 SLP085
T02940150





    US Dept of Commerce
    National Oceanic and Atmospheric Administration
    National Weather Service
    1325 East West Highway
    Silver Spring, MD 20910
    Page Author: NWS Internet Services Team
Disclaimer
Information Quality
Credits
Glossary
Privacy Policy
Freedom of Information Act (FOIA)
About Us
Career Opportunities